sensor_id;sensor_type;location;lat;lon;timestamp;P1;durP1;ratioP1;P2;durP2;ratioP2
5939;SDS011;2995;-31.998;115.906;2023-05-10T00:02:14;12.80;;;2.77;;
5939;SDS011;2995;-31.998;115.906;2023-05-10T00:04:45;14.10;;;3.30;;
5939;SDS011;2995;-31.998;115.906;2023-05-10T00:07:16;12.13;;;3.77;;
5939;SDS011;2995;-31.998;115.906;2023-05-10T00:09:48;18.87;;;4.20;;
5939;SDS011;2995;-31.998;115.906;2023-05-10T00:12:21;14.03;;;2.93;;
5939;SDS011;2995;-31.998;115.906;2023-05-10T00:14:52;23.60;;;4.03;;
5939;SDS011;2995;-31.998;115.906;2023-05-10T00:17:23;13.70;;;2.67;;
5939;SDS011;2995;-31.998;115.906;2023-05-10T00:19:55;22.30;;;3.60;;
5939;SDS011;2995;-31.998;115.906;2023-05-10T00:22:26;10.90;;;2.50;;
5939;SDS011;2995;-31.998;115.906;2023-05-10T00:24:57;10.77;;;3.20;;
5939;SDS011;2995;-31.998;115.906;2023-05-10T00:27:31;12.30;;;3.30;;
5939;SDS011;2995;-31.998;115.906;2023-05-10T00:30:02;12.53;;;2.93;;
5939;SDS011;2995;-31.998;115.906;2023-05-10T00:32:33;17.30;;;3.37;;
5939;SDS011;2995;-31.998;115.906;2023-05-10T00:35:05;14.30;;;3.17;;
5939;SDS011;2995;-31.998;115.906;2023-05-10T00:37:36;12.90;;;3.30;;
5939;SDS011;2995;-31.998;115.906;2023-05-10T00:40:08;13.60;;;3.37;;
5939;SDS011;2995;-31.998;115.906;2023-05-10T00:42:41;12.87;;;3.13;;
5939;SDS011;2995;-31.998;115.906;2023-05-10T00:45:12;11.50;;;2.83;;
5939;SDS011;2995;-31.998;115.906;2023-05-10T00:47:44;14.30;;;2.67;;
5939;SDS011;2995;-31.998;115.906;2023-05-10T00:50:15;15.77;;;3.00;;
5939;SDS011;2995;-31.998;115.906;2023-05-10T00:52:46;19.83;;;3.93;;
5939;SDS011;2995;-31.998;115.906;2023-05-10T00:55:18;13.80;;;2.77;;
5939;SDS011;2995;-31.998;115.906;2023-05-10T00:57:51;23.67;;;3.27;;
5939;SDS011;2995;-31.998;115.906;2023-05-10T01:00:23;14.23;;;2.97;;
5939;SDS011;2995;-31.998;115.906;2023-05-10T01:02:54;13.93;;;2.80;;
5939;SDS011;2995;-31.998;115.906;2023-05-10T01:05:26;17.10;;;3.87;;
5939;SDS011;2995;-31.998;115.906;2023-05-10T01:07:58;13.03;;;3.37;;
5939;SDS011;2995;-31.998;115.906;2023-05-10T01:10:29;18.03;;;3.80;;
5939;SDS011;2995;-31.998;115.906;2023-05-10T01:13:02;21.50;;;3.30;;
5939;SDS011;2995;-31.998;115.906;2023-05-10T01:15:34;14.57;;;3.30;;
5939;SDS011;2995;-31.998;115.906;2023-05-10T01:18:06;14.23;;;2.90;;
5939;SDS011;2995;-31.998;115.906;2023-05-10T01:20:40;11.93;;;3.07;;
5939;SDS011;2995;-31.998;115.906;2023-05-10T01:23:27;19.73;;;3.97;;
5939;SDS011;2995;-31.998;115.906;2023-05-10T01:26:25;15.60;;;3.40;;
5939;SDS011;2995;-31.998;115.906;2023-05-10T01:29:38;20.30;;;3.03;;
5939;SDS011;2995;-31.998;115.906;2023-05-10T01:32:32;20.53;;;3.67;;
5939;SDS011;2995;-31.998;115.906;2023-05-10T01:35:09;18.47;;;3.27;;
5939;SDS011;2995;-31.998;115.906;2023-05-10T01:37:46;12.87;;;3.73;;
5939;SDS011;2995;-31.998;115.906;2023-05-10T01:40:23;17.13;;;3.67;;
5939;SDS011;2995;-31.998;115.906;2023-05-10T01:43:00;14.40;;;3.60;;
5939;SDS011;2995;-31.998;115.906;2023-05-10T01:45:34;18.23;;;4.23;;
5939;SDS011;2995;-31.998;115.906;2023-05-10T01:48:10;18.17;;;4.33;;
5939;SDS011;2995;-31.998;115.906;2023-05-10T01:50:43;14.67;;;3.43;;
5939;SDS011;2995;-31.998;115.906;2023-05-10T01:53:17;20.03;;;3.80;;
5939;SDS011;2995;-31.998;115.906;2023-05-10T01:55:51;25.20;;;4.50;;
5939;SDS011;2995;-31.998;115.906;2023-05-10T01:58:25;17.90;;;4.50;;
5939;SDS011;2995;-31.998;115.906;2023-05-10T02:00:59;17.40;;;3.20;;
5939;SDS011;2995;-31.998;115.906;2023-05-10T02:03:35;17.03;;;3.60;;
5939;SDS011;2995;-31.998;115.906;2023-05-10T02:06:07;18.43;;;3.87;;
5939;SDS011;2995;-31.998;115.906;2023-05-10T02:08:42;14.23;;;3.53;;
5939;SDS011;2995;-31.998;115.906;2023-05-10T02:11:14;22.50;;;3.63;;
5939;SDS011;2995;-31.998;115.906;2023-05-10T02:13:47;16.87;;;4.43;;
5939;SDS011;2995;-31.998;115.906;2023-05-10T02:16:19;20.53;;;4.23;;
5939;SDS011;2995;-31.998;115.906;2023-05-10T02:18:56;18.73;;;3.90;;
5939;SDS011;2995;-31.998;115.906;2023-05-10T02:21:28;19.60;;;3.83;;
5939;SDS011;2995;-31.998;115.906;2023-05-10T02:24:01;33.03;;;5.20;;
5939;SDS011;2995;-31.998;115.906;2023-05-10T02:26:35;25.10;;;4.93;;
5939;SDS011;2995;-31.998;115.906;2023-05-10T02:29:07;28.20;;;4.63;;
5939;SDS011;2995;-31.998;115.906;2023-05-10T02:31:39;25.00;;;4.70;;
5939;SDS011;2995;-31.998;115.906;2023-05-10T02:34:12;18.83;;;4.33;;
5939;SDS011;2995;-31.998;115.906;2023-05-10T02:36:44;23.60;;;3.60;;
5939;SDS011;2995;-31.998;115.906;2023-05-10T02:39:16;25.43;;;6.00;;
5939;SDS011;2995;-31.998;115.906;2023-05-10T02:41:49;24.33;;;4.30;;
5939;SDS011;2995;-31.998;115.906;2023-05-10T02:44:21;20.03;;;4.50;;
5939;SDS011;2995;-31.998;115.906;2023-05-10T02:46:57;25.83;;;4.40;;
5939;SDS011;2995;-31.998;115.906;2023-05-10T02:49:30;14.63;;;3.40;;
5939;SDS011;2995;-31.998;115.906;2023-05-10T02:52:02;22.27;;;4.30;;
5939;SDS011;2995;-31.998;115.906;2023-05-10T02:54:38;17.80;;;3.53;;
5939;SDS011;2995;-31.998;115.906;2023-05-10T02:57:15;18.83;;;3.50;;
5939;SDS011;2995;-31.998;115.906;2023-05-10T02:59:49;16.93;;;3.40;;
5939;SDS011;2995;-31.998;115.906;2023-05-10T03:02:21;22.27;;;3.53;;
5939;SDS011;2995;-31.998;115.906;2023-05-10T03:04:54;20.90;;;3.17;;
5939;SDS011;2995;-31.998;115.906;2023-05-10T03:07:25;13.80;;;2.67;;
5939;SDS011;2995;-31.998;115.906;2023-05-10T03:09:57;20.83;;;3.70;;
5939;SDS011;2995;-31.998;115.906;2023-05-10T03:12:31;15.50;;;3.23;;
5939;SDS011;2995;-31.998;115.906;2023-05-10T03:15:17;9.47;;;2.93;;
5939;SDS011;2995;-31.998;115.906;2023-05-10T03:17:55;18.23;;;3.10;;
5939;SDS011;2995;-31.998;115.906;2023-05-10T03:20:42;13.30;;;3.23;;
5939;SDS011;2995;-31.998;115.906;2023-05-10T03:23:21;16.27;;;4.60;;
5939;SDS011;2995;-31.998;115.906;2023-05-10T03:25:56;11.10;;;3.30;;
5939;SDS011;2995;-31.998;115.906;2023-05-10T03:28:28;15.90;;;3.57;;
5939;SDS011;2995;-31.998;115.906;2023-05-10T03:31:03;17.60;;;3.50;;
5939;SDS011;2995;-31.998;115.906;2023-05-10T03:33:35;18.50;;;3.53;;
5939;SDS011;2995;-31.998;115.906;2023-05-10T03:36:16;7.63;;;2.60;;
5939;SDS011;2995;-31.998;115.906;2023-05-10T03:38:48;14.30;;;3.80;;
5939;SDS011;2995;-31.998;115.906;2023-05-10T03:41:19;17.87;;;4.17;;
5939;SDS011;2995;-31.998;115.906;2023-05-10T03:43:51;14.77;;;3.20;;
5939;SDS011;2995;-31.998;115.906;2023-05-10T03:46:22;16.13;;;3.50;;
5939;SDS011;2995;-31.998;115.906;2023-05-10T03:48:53;18.03;;;3.73;;
5939;SDS011;2995;-31.998;115.906;2023-05-10T03:51:27;18.90;;;4.17;;
5939;SDS011;2995;-31.998;115.906;2023-05-10T03:53:58;17.07;;;3.50;;
5939;SDS011;2995;-31.998;115.906;2023-05-10T03:56:29;20.87;;;3.43;;
5939;SDS011;2995;-31.998;115.906;2023-05-10T03:59:00;19.37;;;3.93;;
5939;SDS011;2995;-31.998;115.906;2023-05-10T04:01:35;19.33;;;3.80;;
5939;SDS011;2995;-31.998;115.906;2023-05-10T04:04:06;18.47;;;3.33;;
5939;SDS011;2995;-31.998;115.906;2023-05-10T04:06:40;16.10;;;3.93;;
5939;SDS011;2995;-31.998;115.906;2023-05-10T04:09:11;16.00;;;3.20;;
5939;SDS011;2995;-31.998;115.906;2023-05-10T04:11:42;15.57;;;4.03;;
5939;SDS011;2995;-31.998;115.906;2023-05-10T04:14:14;19.93;;;3.50;;
5939;SDS011;2995;-31.998;115.906;2023-05-10T04:16:45;18.30;;;4.07;;
5939;SDS011;2995;-31.998;115.906;2023-05-10T04:19:16;16.90;;;2.83;;
5939;SDS011;2995;-31.998;115.906;2023-05-10T04:21:49;14.60;;;4.30;;
5939;SDS011;2995;-31.998;115.906;2023-05-10T04:24:20;17.23;;;3.50;;
5939;SDS011;2995;-31.998;115.906;2023-05-10T04:26:52;15.83;;;2.60;;
5939;SDS011;2995;-31.998;115.906;2023-05-10T04:29:24;12.20;;;3.60;;
5939;SDS011;2995;-31.998;115.906;2023-05-10T04:31:56;15.43;;;3.30;;
5939;SDS011;2995;-31.998;115.906;2023-05-10T04:34:27;16.30;;;3.77;;
5939;SDS011;2995;-31.998;115.906;2023-05-10T04:37:02;12.00;;;3.03;;
5939;SDS011;2995;-31.998;115.906;2023-05-10T04:39:33;14.93;;;2.63;;
5939;SDS011;2995;-31.998;115.906;2023-05-10T04:42:05;22.03;;;3.70;;
5939;SDS011;2995;-31.998;115.906;2023-05-10T04:44:36;40.47;;;6.00;;
5939;SDS011;2995;-31.998;115.906;2023-05-10T04:47:07;14.80;;;3.00;;
5939;SDS011;2995;-31.998;115.906;2023-05-10T04:49:39;10.37;;;2.90;;
5939;SDS011;2995;-31.998;115.906;2023-05-10T04:52:12;16.33;;;3.10;;
5939;SDS011;2995;-31.998;115.906;2023-05-10T04:54:44;10.73;;;2.63;;
5939;SDS011;2995;-31.998;115.906;2023-05-10T04:57:15;15.07;;;2.50;;
5939;SDS011;2995;-31.998;115.906;2023-05-10T04:59:46;14.93;;;3.00;;
5939;SDS011;2995;-31.998;115.906;2023-05-10T05:02:17;11.57;;;2.90;;
5939;SDS011;2995;-31.998;115.906;2023-05-10T05:04:49;8.57;;;2.77;;
5939;SDS011;2995;-31.998;115.906;2023-05-10T05:07:23;8.47;;;2.30;;
5939;SDS011;2995;-31.998;115.906;2023-05-10T05:09:54;6.47;;;2.00;;
5939;SDS011;2995;-31.998;115.906;2023-05-10T05:12:25;11.20;;;2.47;;
5939;SDS011;2995;-31.998;115.906;2023-05-10T05:14:56;15.77;;;2.57;;
5939;SDS011;2995;-31.998;115.906;2023-05-10T05:17:28;9.00;;;2.33;;
5939;SDS011;2995;-31.998;115.906;2023-05-10T05:20:00;15.83;;;2.47;;
5939;SDS011;2995;-31.998;115.906;2023-05-10T05:22:35;7.73;;;2.20;;
5939;SDS011;2995;-31.998;115.906;2023-05-10T05:25:06;8.70;;;2.70;;
5939;SDS011;2995;-31.998;115.906;2023-05-10T05:27:38;9.80;;;2.40;;
5939;SDS011;2995;-31.998;115.906;2023-05-10T05:30:10;7.60;;;2.23;;
5939;SDS011;2995;-31.998;115.906;2023-05-10T05:32:41;11.07;;;2.07;;
5939;SDS011;2995;-31.998;115.906;2023-05-10T05:35:13;6.43;;;2.13;;
5939;SDS011;2995;-31.998;115.906;2023-05-10T05:37:46;12.13;;;2.50;;
5939;SDS011;2995;-31.998;115.906;2023-05-10T05:40:17;9.03;;;1.60;;
5939;SDS011;2995;-31.998;115.906;2023-05-10T05:42:49;11.20;;;2.50;;
5939;SDS011;2995;-31.998;115.906;2023-05-10T05:45:20;7.20;;;2.60;;
5939;SDS011;2995;-31.998;115.906;2023-05-10T05:47:51;5.00;;;1.80;;
5939;SDS011;2995;-31.998;115.906;2023-05-10T05:50:23;10.40;;;2.30;;
5939;SDS011;2995;-31.998;115.906;2023-05-10T05:52:56;16.20;;;2.20;;
5939;SDS011;2995;-31.998;115.906;2023-05-10T05:55:27;12.93;;;2.87;;
5939;SDS011;2995;-31.998;115.906;2023-05-10T05:57:58;11.90;;;3.63;;
5939;SDS011;2995;-31.998;115.906;2023-05-10T06:00:29;12.57;;;2.70;;
5939;SDS011;2995;-31.998;115.906;2023-05-10T06:03:01;12.13;;;2.30;;
5939;SDS011;2995;-31.998;115.906;2023-05-10T06:05:32;8.63;;;2.20;;
5939;SDS011;2995;-31.998;115.906;2023-05-10T06:08:05;9.37;;;2.23;;
5939;SDS011;2995;-31.998;115.906;2023-05-10T06:10:37;13.67;;;3.37;;
5939;SDS011;2995;-31.998;115.906;2023-05-10T06:13:08;17.63;;;2.77;;
5939;SDS011;2995;-31.998;115.906;2023-05-10T06:15:39;15.40;;;2.57;;
5939;SDS011;2995;-31.998;115.906;2023-05-10T06:18:10;16.97;;;3.43;;
5939;SDS011;2995;-31.998;115.906;2023-05-10T06:20:42;10.40;;;2.70;;
5939;SDS011;2995;-31.998;115.906;2023-05-10T06:23:15;11.83;;;2.90;;
5939;SDS011;2995;-31.998;115.906;2023-05-10T06:25:46;10.27;;;2.53;;
5939;SDS011;2995;-31.998;115.906;2023-05-10T06:28:18;16.03;;;2.23;;
5939;SDS011;2995;-31.998;115.906;2023-05-10T06:30:49;8.20;;;2.30;;
5939;SDS011;2995;-31.998;115.906;2023-05-10T06:33:20;12.10;;;2.77;;
5939;SDS011;2995;-31.998;115.906;2023-05-10T06:35:54;10.50;;;2.37;;
5939;SDS011;2995;-31.998;115.906;2023-05-10T06:38:27;6.40;;;1.90;;
5939;SDS011;2995;-31.998;115.906;2023-05-10T06:40:58;8.63;;;3.00;;
5939;SDS011;2995;-31.998;115.906;2023-05-10T06:43:30;6.50;;;2.17;;
5939;SDS011;2995;-31.998;115.906;2023-05-10T06:46:01;10.07;;;2.33;;
5939;SDS011;2995;-31.998;115.906;2023-05-10T06:48:32;5.60;;;1.77;;
5939;SDS011;2995;-31.998;115.906;2023-05-10T06:51:03;5.47;;;1.83;;
5939;SDS011;2995;-31.998;115.906;2023-05-10T06:53:37;6.70;;;2.10;;
5939;SDS011;2995;-31.998;115.906;2023-05-10T06:56:08;12.07;;;2.23;;
5939;SDS011;2995;-31.998;115.906;2023-05-10T06:58:39;7.40;;;2.30;;
5939;SDS011;2995;-31.998;115.906;2023-05-10T07:01:11;9.63;;;2.10;;
5939;SDS011;2995;-31.998;115.906;2023-05-10T07:03:42;12.23;;;2.77;;
5939;SDS011;2995;-31.998;115.906;2023-05-10T07:06:13;9.13;;;2.20;;
5939;SDS011;2995;-31.998;115.906;2023-05-10T07:08:47;9.10;;;2.10;;
5939;SDS011;2995;-31.998;115.906;2023-05-10T07:11:18;7.60;;;2.10;;
5939;SDS011;2995;-31.998;115.906;2023-05-10T07:13:49;6.47;;;1.50;;
5939;SDS011;2995;-31.998;115.906;2023-05-10T07:16:20;7.67;;;2.00;;
5939;SDS011;2995;-31.998;115.906;2023-05-10T07:18:52;15.13;;;3.00;;
5939;SDS011;2995;-31.998;115.906;2023-05-10T07:21:23;9.83;;;2.40;;
5939;SDS011;2995;-31.998;115.906;2023-05-10T07:23:56;7.30;;;2.10;;
5939;SDS011;2995;-31.998;115.906;2023-05-10T07:26:28;4.07;;;1.53;;
5939;SDS011;2995;-31.998;115.906;2023-05-10T07:28:59;14.50;;;2.03;;
5939;SDS011;2995;-31.998;115.906;2023-05-10T07:31:30;8.03;;;2.00;;
5939;SDS011;2995;-31.998;115.906;2023-05-10T07:34:01;5.80;;;2.10;;
5939;SDS011;2995;-31.998;115.906;2023-05-10T07:36:33;15.60;;;2.43;;
5939;SDS011;2995;-31.998;115.906;2023-05-10T07:39:06;8.93;;;2.23;;
5939;SDS011;2995;-31.998;115.906;2023-05-10T07:41:37;7.67;;;1.40;;
5939;SDS011;2995;-31.998;115.906;2023-05-10T07:44:09;11.30;;;2.97;;
5939;SDS011;2995;-31.998;115.906;2023-05-10T07:46:40;5.60;;;1.63;;
5939;SDS011;2995;-31.998;115.906;2023-05-10T07:49:11;7.37;;;2.20;;
5939;SDS011;2995;-31.998;115.906;2023-05-10T07:51:43;8.93;;;2.37;;
5939;SDS011;2995;-31.998;115.906;2023-05-10T07:54:16;11.37;;;2.17;;
5939;SDS011;2995;-31.998;115.906;2023-05-10T07:56:47;4.50;;;1.60;;
5939;SDS011;2995;-31.998;115.906;2023-05-10T07:59:20;5.33;;;1.43;;
5939;SDS011;2995;-31.998;115.906;2023-05-10T08:01:51;6.80;;;1.57;;
5939;SDS011;2995;-31.998;115.906;2023-05-10T08:04:23;7.07;;;1.93;;
5939;SDS011;2995;-31.998;115.906;2023-05-10T08:06:54;5.00;;;1.57;;
5939;SDS011;2995;-31.998;115.906;2023-05-10T08:09:27;9.70;;;2.30;;
5939;SDS011;2995;-31.998;115.906;2023-05-10T08:11:58;6.60;;;2.07;;
5939;SDS011;2995;-31.998;115.906;2023-05-10T08:14:29;11.83;;;2.00;;
5939;SDS011;2995;-31.998;115.906;2023-05-10T08:17:02;8.27;;;1.80;;
5939;SDS011;2995;-31.998;115.906;2023-05-10T08:19:34;11.93;;;3.07;;
5939;SDS011;2995;-31.998;115.906;2023-05-10T08:22:05;8.70;;;2.20;;
5939;SDS011;2995;-31.998;115.906;2023-05-10T08:24:38;9.33;;;2.70;;
5939;SDS011;2995;-31.998;115.906;2023-05-10T08:27:09;8.60;;;1.80;;
5939;SDS011;2995;-31.998;115.906;2023-05-10T08:29:40;11.03;;;2.33;;
5939;SDS011;2995;-31.998;115.906;2023-05-10T08:32:12;10.77;;;2.23;;
5939;SDS011;2995;-31.998;115.906;2023-05-10T08:34:43;8.17;;;2.80;;
5939;SDS011;2995;-31.998;115.906;2023-05-10T08:37:14;6.80;;;2.23;;
5939;SDS011;2995;-31.998;115.906;2023-05-10T08:39:47;10.20;;;2.43;;
5939;SDS011;2995;-31.998;115.906;2023-05-10T08:42:19;8.87;;;2.53;;
5939;SDS011;2995;-31.998;115.906;2023-05-10T08:44:51;9.20;;;2.47;;
5939;SDS011;2995;-31.998;115.906;2023-05-10T08:47:23;12.73;;;3.23;;
5939;SDS011;2995;-31.998;115.906;2023-05-10T08:49:56;8.30;;;1.77;;
5939;SDS011;2995;-31.998;115.906;2023-05-10T08:52:29;6.33;;;2.13;;
5939;SDS011;2995;-31.998;115.906;2023-05-10T08:55:03;9.50;;;1.90;;
5939;SDS011;2995;-31.998;115.906;2023-05-10T08:57:36;7.10;;;1.70;;
5939;SDS011;2995;-31.998;115.906;2023-05-10T09:00:07;10.53;;;1.80;;
5939;SDS011;2995;-31.998;115.906;2023-05-10T09:02:39;10.53;;;3.00;;
5939;SDS011;2995;-31.998;115.906;2023-05-10T09:05:12;8.20;;;2.13;;
5939;SDS011;2995;-31.998;115.906;2023-05-10T09:07:44;8.33;;;1.77;;
5939;SDS011;2995;-31.998;115.906;2023-05-10T09:10:17;6.63;;;1.80;;
5939;SDS011;2995;-31.998;115.906;2023-05-10T09:12:48;13.47;;;2.70;;
5939;SDS011;2995;-31.998;115.906;2023-05-10T09:15:20;12.70;;;3.00;;
5939;SDS011;2995;-31.998;115.906;2023-05-10T09:17:51;27.23;;;4.43;;
5939;SDS011;2995;-31.998;115.906;2023-05-10T09:20:25;12.33;;;4.03;;
5939;SDS011;2995;-31.998;115.906;2023-05-10T09:22:57;9.77;;;2.70;;
5939;SDS011;2995;-31.998;115.906;2023-05-10T09:25:30;11.97;;;2.27;;
5939;SDS011;2995;-31.998;115.906;2023-05-10T09:28:01;10.10;;;2.77;;
5939;SDS011;2995;-31.998;115.906;2023-05-10T09:30:35;11.30;;;2.43;;
5939;SDS011;2995;-31.998;115.906;2023-05-10T09:33:06;9.70;;;3.93;;
5939;SDS011;2995;-31.998;115.906;2023-05-10T09:35:37;11.93;;;2.07;;
5939;SDS011;2995;-31.998;115.906;2023-05-10T09:38:09;8.93;;;1.47;;
5939;SDS011;2995;-31.998;115.906;2023-05-10T09:40:42;8.00;;;1.87;;
5939;SDS011;2995;-31.998;115.906;2023-05-10T09:43:24;8.00;;;2.60;;
5939;SDS011;2995;-31.998;115.906;2023-05-10T09:45:55;13.93;;;4.20;;
5939;SDS011;2995;-31.998;115.906;2023-05-10T09:48:26;4.20;;;1.70;;
5939;SDS011;2995;-31.998;115.906;2023-05-10T09:50:57;8.27;;;1.60;;
5939;SDS011;2995;-31.998;115.906;2023-05-10T09:53:28;9.37;;;2.30;;
5939;SDS011;2995;-31.998;115.906;2023-05-10T09:56:02;5.10;;;2.63;;
5939;SDS011;2995;-31.998;115.906;2023-05-10T09:58:35;4.73;;;1.40;;
5939;SDS011;2995;-31.998;115.906;2023-05-10T10:01:10;9.80;;;2.10;;
5939;SDS011;2995;-31.998;115.906;2023-05-10T10:03:42;9.07;;;2.27;;
5939;SDS011;2995;-31.998;115.906;2023-05-10T10:06:13;10.03;;;2.00;;
5939;SDS011;2995;-31.998;115.906;2023-05-10T10:08:50;3.00;;;1.47;;
5939;SDS011;2995;-31.998;115.906;2023-05-10T10:11:24;9.07;;;1.63;;
5939;SDS011;2995;-31.998;115.906;2023-05-10T10:13:55;8.60;;;1.80;;
5939;SDS011;2995;-31.998;115.906;2023-05-10T10:16:27;6.37;;;1.80;;
5939;SDS011;2995;-31.998;115.906;2023-05-10T10:18:59;6.07;;;1.63;;
5939;SDS011;2995;-31.998;115.906;2023-05-10T10:21:31;9.53;;;2.40;;
5939;SDS011;2995;-31.998;115.906;2023-05-10T10:24:03;10.93;;;1.90;;
5939;SDS011;2995;-31.998;115.906;2023-05-10T10:26:37;8.40;;;1.93;;
5939;SDS011;2995;-31.998;115.906;2023-05-10T10:29:12;13.57;;;3.03;;
5939;SDS011;2995;-31.998;115.906;2023-05-10T10:31:53;7.87;;;2.20;;
5939;SDS011;2995;-31.998;115.906;2023-05-10T10:34:39;10.97;;;2.50;;
5939;SDS011;2995;-31.998;115.906;2023-05-10T10:37:10;12.50;;;2.30;;
5939;SDS011;2995;-31.998;115.906;2023-05-10T10:39:42;7.83;;;2.90;;
5939;SDS011;2995;-31.998;115.906;2023-05-10T10:42:15;5.70;;;1.67;;
5939;SDS011;2995;-31.998;115.906;2023-05-10T10:45:16;7.50;;;2.07;;
5939;SDS011;2995;-31.998;115.906;2023-05-10T10:47:47;11.83;;;2.60;;
5939;SDS011;2995;-31.998;115.906;2023-05-10T10:50:22;5.47;;;2.33;;
5939;SDS011;2995;-31.998;115.906;2023-05-10T10:52:54;9.10;;;2.90;;
5939;SDS011;2995;-31.998;115.906;2023-05-10T10:55:47;16.03;;;4.00;;
5939;SDS011;2995;-31.998;115.906;2023-05-10T11:01:19;15.93;;;3.37;;
5939;SDS011;2995;-31.998;115.906;2023-05-10T11:06:48;11.87;;;2.90;;
5939;SDS011;2995;-31.998;115.906;2023-05-10T11:09:20;8.17;;;2.13;;
5939;SDS011;2995;-31.998;115.906;2023-05-10T11:11:55;17.13;;;3.40;;
5939;SDS011;2995;-31.998;115.906;2023-05-10T11:14:29;9.50;;;3.00;;
5939;SDS011;2995;-31.998;115.906;2023-05-10T11:17:02;13.70;;;2.37;;
5939;SDS011;2995;-31.998;115.906;2023-05-10T11:20:03;5.10;;;2.10;;
5939;SDS011;2995;-31.998;115.906;2023-05-10T11:25:26;11.87;;;2.00;;
5939;SDS011;2995;-31.998;115.906;2023-05-10T11:27:57;11.97;;;2.27;;
5939;SDS011;2995;-31.998;115.906;2023-05-10T11:30:35;6.70;;;1.83;;
5939;SDS011;2995;-31.998;115.906;2023-05-10T11:33:08;10.40;;;2.07;;
5939;SDS011;2995;-31.998;115.906;2023-05-10T11:35:44;10.77;;;1.80;;
5939;SDS011;2995;-31.998;115.906;2023-05-10T11:38:15;9.40;;;1.93;;
5939;SDS011;2995;-31.998;115.906;2023-05-10T11:40:46;6.97;;;1.70;;
5939;SDS011;2995;-31.998;115.906;2023-05-10T11:43:23;6.07;;;1.87;;
5939;SDS011;2995;-31.998;115.906;2023-05-10T11:45:59;5.73;;;2.37;;
5939;SDS011;2995;-31.998;115.906;2023-05-10T11:48:30;6.10;;;1.77;;
5939;SDS011;2995;-31.998;115.906;2023-05-10T11:51:02;9.23;;;1.90;;
5939;SDS011;2995;-31.998;115.906;2023-05-10T11:53:33;6.93;;;1.80;;
5939;SDS011;2995;-31.998;115.906;2023-05-10T11:56:04;4.03;;;1.10;;
5939;SDS011;2995;-31.998;115.906;2023-05-10T11:58:36;6.70;;;1.40;;
5939;SDS011;2995;-31.998;115.906;2023-05-10T12:01:10;6.10;;;1.40;;
5939;SDS011;2995;-31.998;115.906;2023-05-10T12:03:41;3.30;;;1.53;;
5939;SDS011;2995;-31.998;115.906;2023-05-10T12:06:13;6.53;;;1.63;;
5939;SDS011;2995;-31.998;115.906;2023-05-10T12:08:45;5.50;;;1.33;;
5939;SDS011;2995;-31.998;115.906;2023-05-10T12:11:18;11.73;;;1.97;;
5939;SDS011;2995;-31.998;115.906;2023-05-10T12:13:53;6.07;;;1.80;;
5939;SDS011;2995;-31.998;115.906;2023-05-10T12:16:28;5.53;;;1.63;;
5939;SDS011;2995;-31.998;115.906;2023-05-10T12:18:59;5.40;;;1.80;;
5939;SDS011;2995;-31.998;115.906;2023-05-10T12:21:31;4.77;;;1.70;;
5939;SDS011;2995;-31.998;115.906;2023-05-10T12:24:05;5.80;;;1.70;;
5939;SDS011;2995;-31.998;115.906;2023-05-10T12:26:36;4.90;;;2.03;;
5939;SDS011;2995;-31.998;115.906;2023-05-10T12:29:14;5.80;;;1.70;;
5939;SDS011;2995;-31.998;115.906;2023-05-10T12:31:51;15.27;;;3.00;;
5939;SDS011;2995;-31.998;115.906;2023-05-10T12:34:27;13.27;;;2.70;;
5939;SDS011;2995;-31.998;115.906;2023-05-10T12:37:01;7.60;;;2.30;;
5939;SDS011;2995;-31.998;115.906;2023-05-10T12:39:39;15.10;;;3.17;;
5939;SDS011;2995;-31.998;115.906;2023-05-10T12:42:12;12.30;;;2.50;;
5939;SDS011;2995;-31.998;115.906;2023-05-10T12:44:43;7.30;;;2.57;;
5939;SDS011;2995;-31.998;115.906;2023-05-10T12:47:17;8.90;;;2.00;;
5939;SDS011;2995;-31.998;115.906;2023-05-10T12:49:48;13.03;;;2.60;;
5939;SDS011;2995;-31.998;115.906;2023-05-10T12:52:19;11.03;;;2.33;;
5939;SDS011;2995;-31.998;115.906;2023-05-10T12:54:51;12.60;;;2.53;;
5939;SDS011;2995;-31.998;115.906;2023-05-10T12:57:22;8.00;;;2.57;;
5939;SDS011;2995;-31.998;115.906;2023-05-10T12:59:54;12.37;;;2.70;;
5939;SDS011;2995;-31.998;115.906;2023-05-10T13:02:27;6.70;;;1.93;;
5939;SDS011;2995;-31.998;115.906;2023-05-10T13:05:00;13.07;;;3.30;;
5939;SDS011;2995;-31.998;115.906;2023-05-10T13:07:31;8.10;;;2.00;;
5939;SDS011;2995;-31.998;115.906;2023-05-10T13:10:03;9.37;;;2.70;;
5939;SDS011;2995;-31.998;115.906;2023-05-10T13:12:36;7.23;;;2.10;;
5939;SDS011;2995;-31.998;115.906;2023-05-10T13:15:07;17.07;;;2.80;;
5939;SDS011;2995;-31.998;115.906;2023-05-10T13:17:41;12.40;;;2.53;;
5939;SDS011;2995;-31.998;115.906;2023-05-10T13:20:12;7.30;;;2.30;;
5939;SDS011;2995;-31.998;115.906;2023-05-10T13:22:44;7.77;;;2.00;;
5939;SDS011;2995;-31.998;115.906;2023-05-10T13:25:15;5.97;;;1.53;;
5939;SDS011;2995;-31.998;115.906;2023-05-10T13:27:46;12.43;;;2.27;;
5939;SDS011;2995;-31.998;115.906;2023-05-10T13:30:17;5.23;;;1.90;;
5939;SDS011;2995;-31.998;115.906;2023-05-10T13:32:52;6.53;;;2.20;;
5939;SDS011;2995;-31.998;115.906;2023-05-10T13:35:23;5.17;;;2.13;;
5939;SDS011;2995;-31.998;115.906;2023-05-10T13:37:55;7.63;;;2.00;;
5939;SDS011;2995;-31.998;115.906;2023-05-10T13:40:26;12.37;;;2.40;;
5939;SDS011;2995;-31.998;115.906;2023-05-10T13:42:57;14.83;;;2.30;;
5939;SDS011;2995;-31.998;115.906;2023-05-10T13:45:28;8.03;;;2.00;;
5939;SDS011;2995;-31.998;115.906;2023-05-10T13:48:01;8.77;;;2.20;;
5939;SDS011;2995;-31.998;115.906;2023-05-10T13:50:33;6.87;;;2.03;;
5939;SDS011;2995;-31.998;115.906;2023-05-10T13:53:04;6.93;;;1.63;;
5939;SDS011;2995;-31.998;115.906;2023-05-10T13:55:35;6.60;;;1.70;;
5939;SDS011;2995;-31.998;115.906;2023-05-10T13:58:07;5.63;;;1.90;;
5939;SDS011;2995;-31.998;115.906;2023-05-10T14:00:38;8.60;;;2.23;;
5939;SDS011;2995;-31.998;115.906;2023-05-10T14:03:12;9.00;;;2.30;;
5939;SDS011;2995;-31.998;115.906;2023-05-10T14:05:44;4.80;;;1.73;;
5939;SDS011;2995;-31.998;115.906;2023-05-10T14:08:15;8.83;;;1.90;;
5939;SDS011;2995;-31.998;115.906;2023-05-10T14:10:46;6.90;;;1.77;;
5939;SDS011;2995;-31.998;115.906;2023-05-10T14:13:18;7.90;;;1.90;;
5939;SDS011;2995;-31.998;115.906;2023-05-10T14:15:49;4.83;;;2.10;;
5939;SDS011;2995;-31.998;115.906;2023-05-10T14:18:23;8.80;;;2.03;;
5939;SDS011;2995;-31.998;115.906;2023-05-10T14:20:54;8.90;;;2.23;;
5939;SDS011;2995;-31.998;115.906;2023-05-10T14:23:26;9.13;;;2.47;;
5939;SDS011;2995;-31.998;115.906;2023-05-10T14:25:57;9.87;;;2.00;;
5939;SDS011;2995;-31.998;115.906;2023-05-10T14:28:29;9.63;;;1.93;;
5939;SDS011;2995;-31.998;115.906;2023-05-10T14:31:00;9.73;;;1.97;;
5939;SDS011;2995;-31.998;115.906;2023-05-10T14:33:33;5.00;;;1.73;;
5939;SDS011;2995;-31.998;115.906;2023-05-10T14:36:05;9.57;;;1.80;;
5939;SDS011;2995;-31.998;115.906;2023-05-10T14:38:36;8.63;;;2.23;;
5939;SDS011;2995;-31.998;115.906;2023-05-10T14:41:07;4.43;;;1.60;;
5939;SDS011;2995;-31.998;115.906;2023-05-10T14:43:40;4.37;;;1.50;;
5939;SDS011;2995;-31.998;115.906;2023-05-10T14:46:12;6.00;;;1.87;;
5939;SDS011;2995;-31.998;115.906;2023-05-10T14:48:45;10.20;;;1.90;;
5939;SDS011;2995;-31.998;115.906;2023-05-10T14:51:16;8.97;;;1.77;;
5939;SDS011;2995;-31.998;115.906;2023-05-10T14:53:48;4.57;;;1.50;;
5939;SDS011;2995;-31.998;115.906;2023-05-10T14:56:19;11.33;;;2.07;;
5939;SDS011;2995;-31.998;115.906;2023-05-10T14:58:52;16.60;;;2.90;;
5939;SDS011;2995;-31.998;115.906;2023-05-10T15:01:23;5.60;;;1.70;;
5939;SDS011;2995;-31.998;115.906;2023-05-10T15:03:56;9.87;;;2.00;;
5939;SDS011;2995;-31.998;115.906;2023-05-10T15:06:30;10.63;;;2.33;;
5939;SDS011;2995;-31.998;115.906;2023-05-10T15:09:02;12.33;;;3.43;;
5939;SDS011;2995;-31.998;115.906;2023-05-10T15:11:33;7.03;;;2.40;;